createdAt,value
2019-03-23T00:02:11.879Z,8.37
2019-03-23T00:04:42.412Z,8.43
2019-03-23T00:07:13.211Z,8.67
2019-03-23T00:09:44.708Z,8.80
2019-03-23T00:12:15.196Z,12.53
2019-03-23T00:14:46.001Z,11.77
2019-03-23T00:17:16.479Z,11.20
2019-03-23T00:19:46.990Z,11.20
2019-03-23T00:22:17.479Z,12.40
2019-03-23T00:24:48.158Z,13.40
2019-03-23T00:27:18.573Z,14.57
2019-03-23T00:29:50.489Z,13.00
2019-03-23T00:32:21.089Z,13.77
2019-03-23T00:34:51.748Z,16.70
2019-03-23T00:37:22.343Z,16.07
2019-03-23T00:39:53.223Z,18.20
2019-03-23T00:42:23.664Z,17.40
2019-03-23T00:44:54.166Z,16.60
2019-03-23T00:47:25.044Z,19.60
2019-03-23T00:49:55.581Z,18.60
2019-03-23T00:52:25.998Z,19.00
2019-03-23T00:54:57.641Z,20.10
2019-03-23T00:57:28.083Z,18.67
2019-03-23T00:59:58.669Z,19.17
2019-03-23T01:02:29.138Z,20.43
2019-03-23T01:05:00.831Z,21.77
2019-03-23T01:07:33.484Z,21.17
2019-03-23T01:10:04.292Z,21.77
2019-03-23T01:12:34.704Z,22.10
2019-03-23T01:15:06.405Z,21.23
2019-03-23T01:17:36.906Z,22.20
2019-03-23T01:20:08.634Z,23.13
2019-03-23T01:22:39.138Z,22.70
2019-03-23T01:25:09.887Z,21.90
2019-03-23T01:27:40.652Z,23.60
2019-03-23T01:30:11.862Z,25.50
2019-03-23T01:32:42.347Z,25.10
2019-03-23T01:35:13.057Z,25.63
2019-03-23T01:37:43.570Z,26.17
2019-03-23T01:40:15.715Z,30.87
2019-03-23T01:42:46.230Z,30.57
2019-03-23T01:45:16.862Z,31.70
2019-03-23T01:47:47.532Z,32.47
2019-03-23T01:50:18.029Z,34.23
2019-03-23T01:52:48.965Z,33.47
2019-03-23T01:55:20.958Z,32.73
2019-03-23T01:57:52.447Z,35.13
2019-03-23T02:00:22.845Z,33.93
2019-03-23T02:02:53.819Z,36.30
2019-03-23T02:05:24.359Z,37.63
2019-03-23T02:07:54.923Z,37.30
2019-03-23T02:10:25.438Z,38.10
2019-03-23T02:12:56.696Z,39.03
2019-03-23T02:15:27.471Z,40.47
2019-03-23T02:17:57.959Z,39.33
2019-03-23T02:20:28.522Z,40.73
2019-03-23T02:22:58.983Z,41.60
2019-03-23T02:25:29.526Z,40.50
2019-03-23T02:28:00.297Z,40.07
2019-03-23T02:30:30.776Z,38.80
2019-03-23T02:33:01.342Z,39.00
2019-03-23T02:35:31.842Z,40.03
2019-03-23T02:38:02.358Z,42.17
2019-03-23T02:40:32.847Z,40.90
2019-03-23T02:43:03.428Z,43.67
2019-03-23T02:45:34.663Z,44.50
2019-03-23T02:48:05.149Z,46.07
2019-03-23T02:50:35.687Z,44.23
2019-03-23T02:53:06.199Z,45.80
2019-03-23T02:55:36.609Z,47.57
2019-03-23T02:58:07.096Z,47.87
2019-03-23T03:00:39.087Z,48.33
2019-03-23T03:03:09.694Z,52.13
2019-03-23T03:05:41.237Z,52.13
2019-03-23T03:08:11.730Z,55.73
2019-03-23T03:10:43.004Z,53.67
2019-03-23T03:13:13.530Z,55.77
2019-03-23T03:15:44.072Z,55.17
2019-03-23T03:18:14.555Z,57.33
2019-03-23T03:20:45.139Z,56.10
2019-03-23T03:23:15.862Z,55.87
2019-03-23T03:25:46.899Z,53.50
2019-03-23T03:28:17.325Z,52.67
2019-03-23T03:30:49.048Z,50.00
2019-03-23T03:33:20.490Z,52.40
2019-03-23T03:35:51.247Z,54.10
2019-03-23T03:38:21.764Z,52.93
2019-03-23T03:40:52.718Z,49.43
2019-03-23T03:43:24.081Z,50.97
2019-03-23T03:45:54.504Z,54.90
2019-03-23T03:48:25.006Z,52.53
2019-03-23T03:50:55.546Z,55.77
2019-03-23T03:53:25.879Z,54.33
2019-03-23T03:55:56.389Z,56.37
2019-03-23T03:58:26.893Z,57.47
2019-03-23T04:00:57.505Z,55.10
2019-03-23T04:03:27.954Z,56.07
2019-03-23T04:05:58.395Z,55.23
2019-03-23T04:08:28.821Z,56.43
2019-03-23T04:10:59.375Z,57.43
2019-03-23T04:13:30.288Z,59.77
2019-03-23T04:16:01.202Z,58.90
2019-03-23T04:18:31.693Z,58.10
2019-03-23T04:21:02.114Z,57.97
2019-03-23T04:23:33.015Z,57.90
2019-03-23T04:26:03.526Z,60.97
2019-03-23T04:28:34.236Z,58.53
2019-03-23T04:31:04.842Z,56.67
2019-03-23T04:33:35.305Z,57.83
2019-03-23T04:36:05.940Z,58.20
2019-03-23T04:38:36.442Z,60.10
2019-03-23T04:41:06.931Z,57.73
2019-03-23T04:43:37.350Z,58.83
2019-03-23T04:46:07.843Z,54.57
2019-03-23T04:48:38.295Z,57.07
2019-03-23T04:51:09.179Z,60.17
2019-03-23T04:53:39.675Z,56.47
2019-03-23T04:56:11.067Z,56.23
2019-03-23T04:58:41.558Z,53.77
2019-03-23T05:01:12.067Z,57.93
2019-03-23T05:03:42.495Z,55.60
2019-03-23T05:06:12.969Z,59.20
2019-03-23T05:08:43.555Z,60.37
2019-03-23T05:11:14.428Z,58.07
2019-03-23T05:13:45.547Z,59.87
2019-03-23T05:16:16.271Z,61.67
2019-03-23T05:18:47.013Z,58.00
2019-03-23T05:21:17.550Z,56.57
2019-03-23T05:23:48.000Z,61.47
2019-03-23T05:26:19.171Z,56.87
2019-03-23T05:28:49.951Z,57.27
2019-03-23T05:31:20.456Z,59.53
2019-03-23T05:33:50.892Z,60.53
2019-03-23T05:36:21.417Z,60.00
2019-03-23T05:38:51.909Z,59.37
2019-03-23T05:41:22.811Z,57.10
2019-03-23T05:43:53.209Z,54.80
2019-03-23T05:46:23.621Z,54.87
2019-03-23T05:48:54.545Z,52.60
2019-03-23T05:51:25.526Z,55.97
2019-03-23T05:53:56.284Z,55.10
2019-03-23T05:56:27.075Z,54.87
2019-03-23T05:58:58.396Z,57.07
2019-03-23T06:01:29.265Z,53.63
2019-03-23T06:03:59.738Z,57.33
2019-03-23T06:06:30.240Z,54.10
2019-03-23T06:09:00.605Z,55.23
2019-03-23T06:11:31.166Z,54.30
2019-03-23T06:14:01.586Z,52.50
2019-03-23T06:16:32.349Z,51.20
2019-03-23T06:19:02.754Z,55.60
2019-03-23T06:21:33.256Z,54.53
2019-03-23T06:24:03.770Z,55.27
2019-03-23T06:26:34.273Z,52.90
2019-03-23T06:29:05.098Z,54.07
2019-03-23T06:31:35.618Z,54.40
2019-03-23T06:34:06.165Z,55.60
2019-03-23T06:36:36.722Z,53.10
2019-03-23T06:39:08.776Z,54.77
2019-03-23T06:41:39.220Z,57.07
2019-03-23T06:44:09.647Z,56.30
2019-03-23T06:46:40.115Z,54.37
2019-03-23T06:49:10.731Z,52.13
2019-03-23T06:51:41.601Z,54.07
2019-03-23T06:54:13.777Z,54.80
2019-03-23T06:56:44.988Z,53.40
2019-03-23T06:59:15.512Z,55.20
2019-03-23T07:01:46.328Z,54.67
2019-03-23T07:04:17.110Z,51.27
2019-03-23T07:06:48.012Z,54.00
2019-03-23T07:09:18.459Z,51.57
2019-03-23T07:11:49.040Z,53.57
2019-03-23T07:14:19.519Z,50.50
2019-03-23T07:16:50.439Z,54.90
2019-03-23T07:19:20.877Z,51.93
2019-03-23T07:21:51.634Z,55.83
2019-03-23T07:24:22.614Z,53.30
2019-03-23T07:26:53.030Z,56.83
2019-03-23T07:29:23.652Z,55.40
2019-03-23T07:31:54.131Z,53.30
2019-03-23T07:34:24.652Z,54.97
2019-03-23T07:36:56.940Z,53.63
2019-03-23T07:39:30.381Z,56.37
2019-03-23T07:41:59.751Z,55.83
2019-03-23T07:44:30.271Z,50.80
2019-03-23T07:47:00.872Z,52.53
2019-03-23T07:49:31.293Z,53.87
2019-03-23T07:52:02.093Z,54.80
2019-03-23T07:54:32.738Z,53.47
2019-03-23T07:57:03.209Z,52.03
2019-03-23T07:59:33.768Z,52.47
2019-03-23T08:02:04.379Z,54.03
2019-03-23T08:04:34.810Z,51.37
2019-03-23T08:07:05.787Z,48.50
2019-03-23T08:09:38.094Z,50.63
2019-03-23T08:12:08.973Z,49.13
2019-03-23T08:14:39.395Z,48.47
2019-03-23T08:17:09.846Z,48.57
2019-03-23T08:19:40.262Z,44.37
2019-03-23T08:22:11.301Z,46.27
2019-03-23T08:24:42.838Z,45.30
2019-03-23T08:27:14.529Z,47.93
2019-03-23T08:29:44.925Z,45.17
2019-03-23T08:32:15.437Z,45.10
2019-03-23T08:34:46.263Z,45.53
2019-03-23T08:37:17.683Z,46.63
2019-03-23T08:39:48.878Z,44.77
2019-03-23T08:42:19.545Z,42.57
2019-03-23T08:44:50.066Z,45.90
2019-03-23T08:47:20.692Z,45.37
2019-03-23T08:49:51.257Z,43.00
2019-03-23T08:52:21.675Z,43.10
2019-03-23T08:54:54.455Z,45.10
2019-03-23T08:57:25.017Z,42.97
2019-03-23T08:59:56.669Z,43.87
2019-03-23T09:02:27.094Z,40.20
2019-03-23T09:04:57.836Z,42.57
2019-03-23T09:07:28.805Z,43.20
2019-03-23T09:10:00.639Z,43.40
2019-03-23T09:12:31.373Z,42.73
2019-03-23T09:15:01.782Z,42.80
2019-03-23T09:17:32.522Z,43.20
2019-03-23T09:20:02.941Z,43.23
2019-03-23T09:22:33.441Z,43.83
2019-03-23T09:25:04.358Z,44.30
2019-03-23T09:27:35.668Z,43.27
2019-03-23T09:30:07.576Z,42.77
2019-03-23T09:32:38.530Z,41.30
2019-03-23T09:35:09.445Z,41.23
2019-03-23T09:37:40.364Z,40.63
2019-03-23T09:40:11.571Z,41.63
2019-03-23T09:42:42.256Z,41.07
2019-03-23T09:45:14.365Z,40.83
2019-03-23T09:47:44.915Z,42.73
2019-03-23T09:50:15.755Z,39.67
2019-03-23T09:52:47.086Z,39.60
2019-03-23T09:55:17.671Z,41.70
2019-03-23T09:57:48.101Z,40.77
2019-03-23T10:00:18.581Z,39.83
2019-03-23T10:02:49.111Z,39.20
2019-03-23T10:05:21.081Z,40.13
2019-03-23T10:07:51.528Z,37.43
2019-03-23T10:10:22.355Z,36.83
2019-03-23T10:12:53.551Z,36.77
2019-03-23T10:15:24.238Z,38.43
2019-03-23T10:17:54.704Z,38.97
2019-03-23T10:20:26.145Z,37.70
2019-03-23T10:22:56.680Z,36.60
2019-03-23T10:25:27.203Z,37.67
2019-03-23T10:27:57.749Z,37.83
2019-03-23T10:30:28.265Z,38.50
2019-03-23T10:32:58.807Z,39.37
2019-03-23T10:35:29.216Z,39.90
2019-03-23T10:37:59.818Z,39.83
2019-03-23T10:40:32.680Z,36.60
2019-03-23T10:43:02.538Z,38.63
2019-03-23T10:45:40.027Z,38.37
2019-03-23T10:48:05.238Z,37.50
2019-03-23T10:50:36.113Z,39.60
2019-03-23T10:53:06.684Z,37.83
2019-03-23T10:55:37.164Z,38.97
2019-03-23T10:58:07.618Z,39.70
2019-03-23T11:00:38.122Z,39.43
2019-03-23T11:03:10.000Z,38.37
2019-03-23T11:05:40.573Z,38.30
2019-03-23T11:08:11.074Z,37.93
2019-03-23T11:10:42.197Z,39.53
2019-03-23T11:13:12.594Z,40.53
2019-03-23T11:15:43.206Z,37.63
2019-03-23T11:18:14.084Z,39.23
2019-03-23T11:20:44.590Z,40.47
2019-03-23T11:23:15.085Z,41.43
2019-03-23T11:25:45.937Z,39.70
2019-03-23T11:28:17.293Z,40.50
2019-03-23T11:30:47.803Z,43.93
2019-03-23T11:33:18.595Z,43.53
2019-03-23T11:35:57.511Z,42.07
2019-03-23T11:38:21.624Z,42.43
2019-03-23T11:40:55.377Z,41.60
2019-03-23T11:43:25.781Z,39.57
2019-03-23T11:45:56.275Z,38.47
2019-03-23T11:48:26.785Z,40.03
2019-03-23T11:50:57.647Z,41.57
2019-03-23T11:53:28.578Z,38.30
2019-03-23T11:55:59.573Z,37.43
2019-03-23T11:58:30.162Z,37.73
2019-03-23T12:01:01.747Z,36.87
2019-03-23T12:03:32.723Z,36.40
2019-03-23T12:06:04.823Z,38.77
2019-03-23T12:08:35.896Z,37.80
2019-03-23T12:11:06.665Z,35.97
2019-03-23T12:13:37.410Z,39.67
2019-03-23T12:16:08.185Z,36.23
2019-03-23T12:18:38.818Z,37.20
2019-03-23T12:21:09.553Z,36.13
2019-03-23T12:23:40.242Z,37.00
2019-03-23T12:26:10.871Z,37.40
2019-03-23T12:28:41.348Z,39.30
2019-03-23T12:31:11.754Z,38.93
2019-03-23T12:33:42.215Z,39.13
2019-03-23T12:36:12.747Z,38.43
2019-03-23T12:38:43.370Z,38.97
2019-03-23T12:41:22.787Z,36.83
2019-03-23T12:43:46.806Z,35.20
2019-03-23T12:46:17.191Z,35.80
2019-03-23T12:48:48.085Z,36.77
2019-03-23T12:51:18.631Z,38.00
2019-03-23T12:53:49.131Z,38.83
2019-03-23T12:56:20.207Z,36.73
2019-03-23T12:58:51.371Z,36.70
2019-03-23T13:01:22.577Z,36.77
2019-03-23T13:03:53.175Z,34.87
2019-03-23T13:06:23.833Z,35.70
2019-03-23T13:08:54.470Z,36.20
2019-03-23T13:11:44.321Z,34.90
2019-03-23T13:14:14.976Z,33.57
2019-03-23T13:16:45.575Z,33.23
2019-03-23T13:19:16.116Z,32.97
2019-03-23T13:21:46.671Z,33.63
2019-03-23T13:24:17.213Z,33.97
2019-03-23T13:26:47.786Z,34.77
2019-03-23T13:29:18.571Z,36.30
2019-03-23T13:31:49.188Z,34.77
2019-03-23T13:34:19.870Z,31.53
2019-03-23T13:36:51.441Z,33.63
2019-03-23T13:39:21.986Z,35.53
2019-03-23T13:41:52.539Z,34.53
2019-03-23T13:44:23.121Z,34.90
2019-03-23T13:46:53.629Z,32.87
2019-03-23T13:49:24.202Z,33.53
2019-03-23T13:51:55.067Z,33.03
2019-03-23T13:54:25.966Z,35.30
2019-03-23T13:56:56.694Z,33.83
2019-03-23T13:59:29.084Z,34.90
2019-03-23T14:02:01.144Z,34.73
2019-03-23T14:04:34.086Z,36.30
2019-03-23T14:07:04.586Z,36.67
2019-03-23T14:09:35.491Z,32.57
2019-03-23T14:12:06.749Z,35.40
2019-03-23T14:14:37.575Z,37.67
2019-03-23T14:17:08.121Z,35.13
2019-03-23T14:19:38.662Z,33.43
2019-03-23T14:22:09.221Z,37.60
2019-03-23T14:24:39.605Z,35.27
2019-03-23T14:27:10.252Z,36.67
2019-03-23T14:29:41.015Z,34.50
2019-03-23T14:32:12.617Z,35.40
2019-03-23T14:34:43.970Z,34.97
2019-03-23T14:37:14.535Z,30.37
2019-03-23T14:39:44.949Z,32.23
2019-03-23T14:42:15.990Z,33.90
2019-03-23T14:44:46.838Z,33.73
2019-03-23T14:47:17.719Z,38.97
2019-03-23T14:49:50.092Z,38.80
2019-03-23T14:52:20.544Z,36.93
2019-03-23T14:54:51.355Z,38.47
2019-03-23T14:57:22.475Z,37.50
2019-03-23T14:59:53.078Z,37.90
2019-03-23T15:02:23.850Z,37.93
2019-03-23T15:04:54.613Z,39.47
2019-03-23T15:07:25.687Z,38.27
2019-03-23T15:09:56.359Z,38.70
2019-03-23T15:12:26.734Z,38.73
2019-03-23T15:14:57.154Z,37.70
2019-03-23T15:17:28.094Z,37.90
2019-03-23T15:19:58.583Z,39.37
2019-03-23T15:22:29.074Z,39.90
2019-03-23T15:25:00.213Z,40.53
2019-03-23T15:27:32.146Z,37.50
2019-03-23T15:30:02.883Z,38.63
2019-03-23T15:32:33.658Z,36.17
2019-03-23T15:35:04.415Z,36.23
2019-03-23T15:37:34.960Z,38.17
2019-03-23T15:40:05.942Z,37.03
2019-03-23T15:42:36.872Z,37.03
2019-03-23T15:45:08.641Z,36.43
2019-03-23T15:47:39.486Z,35.70
2019-03-23T15:50:11.482Z,36.87
2019-03-23T15:52:42.070Z,37.53
2019-03-23T15:55:12.611Z,36.13
2019-03-23T15:57:43.241Z,35.50
2019-03-23T16:00:14.470Z,34.93
2019-03-23T16:02:45.866Z,37.23
2019-03-23T16:05:17.829Z,36.63
2019-03-23T16:07:48.667Z,36.43
2019-03-23T16:10:19.182Z,36.70
2019-03-23T16:12:49.648Z,35.97
2019-03-23T16:15:20.254Z,36.87
2019-03-23T16:17:51.030Z,36.13
2019-03-23T16:20:21.837Z,38.27
2019-03-23T16:22:53.027Z,37.10
2019-03-23T16:25:23.691Z,37.83
2019-03-23T16:27:54.161Z,37.87
2019-03-23T16:30:30.900Z,37.40
2019-03-23T16:33:01.509Z,37.30
2019-03-23T16:35:33.492Z,37.13
2019-03-23T16:38:04.113Z,38.00
2019-03-23T16:40:34.673Z,36.87
2019-03-23T16:43:06.320Z,39.07
2019-03-23T16:45:36.979Z,38.03
2019-03-23T16:48:08.098Z,39.07
2019-03-23T16:50:38.654Z,37.57
2019-03-23T16:53:09.359Z,38.00
2019-03-23T16:55:39.844Z,37.33
2019-03-23T16:58:16.047Z,37.07
2019-03-23T17:00:42.997Z,37.43
2019-03-23T17:03:13.590Z,37.83
2019-03-23T17:05:44.552Z,39.70
2019-03-23T17:08:14.960Z,39.10
2019-03-23T17:10:45.483Z,41.13
2019-03-23T17:13:16.175Z,38.70
2019-03-23T17:15:46.713Z,37.57
2019-03-23T17:18:18.360Z,38.60
2019-03-23T17:20:48.870Z,39.27
2019-03-23T17:23:20.031Z,39.37
2019-03-23T17:25:50.540Z,41.00
2019-03-23T17:28:20.951Z,40.57
2019-03-23T17:30:51.484Z,39.90
2019-03-23T17:33:21.906Z,40.70
2019-03-23T17:35:52.530Z,38.93
2019-03-23T17:38:23.325Z,39.23
2019-03-23T17:40:54.153Z,39.10
2019-03-23T17:43:25.710Z,37.67
2019-03-23T17:45:56.262Z,37.70
2019-03-23T17:48:26.704Z,39.47
2019-03-23T17:50:57.241Z,39.37
2019-03-23T17:53:27.645Z,38.73
2019-03-23T17:55:58.754Z,40.93
2019-03-23T17:58:29.205Z,39.53
2019-03-23T18:01:00.564Z,36.43
2019-03-23T18:03:31.746Z,39.63
2019-03-23T18:06:02.450Z,38.63
2019-03-23T18:08:33.206Z,40.13
2019-03-23T18:11:03.954Z,41.57
2019-03-23T18:13:34.445Z,40.07
2019-03-23T18:16:04.968Z,38.93
2019-03-23T18:18:35.753Z,38.57
2019-03-23T18:21:06.284Z,38.20
2019-03-23T18:23:36.786Z,39.20
2019-03-23T18:26:07.454Z,39.47
2019-03-23T18:28:38.030Z,39.33
2019-03-23T18:31:08.488Z,41.67
2019-03-23T18:33:39.000Z,41.77
2019-03-23T18:36:10.780Z,40.77
2019-03-23T18:38:41.265Z,41.60
2019-03-23T18:41:11.783Z,41.43
2019-03-23T18:43:42.235Z,40.83
2019-03-23T18:46:12.717Z,41.03
2019-03-23T18:48:43.511Z,40.87
2019-03-23T18:51:14.246Z,41.57
2019-03-23T18:53:45.178Z,40.77
2019-03-23T18:56:15.615Z,40.93
2019-03-23T18:58:46.154Z,38.33
2019-03-23T19:01:17.495Z,37.83
2019-03-23T19:03:47.934Z,39.77
2019-03-23T19:06:18.460Z,40.77
2019-03-23T19:08:48.975Z,38.30
2019-03-23T19:11:19.583Z,37.30
2019-03-23T19:13:50.098Z,35.90
2019-03-23T19:16:21.917Z,37.43
2019-03-23T19:18:52.722Z,37.97
2019-03-23T19:21:23.187Z,36.53
2019-03-23T19:23:53.610Z,35.87
2019-03-23T19:26:24.039Z,37.40
2019-03-23T19:28:54.836Z,38.50
2019-03-23T19:31:25.585Z,40.30
2019-03-23T19:33:55.992Z,40.07
2019-03-23T19:36:26.723Z,41.00
2019-03-23T19:38:58.848Z,42.23
2019-03-23T19:41:29.666Z,39.93
2019-03-23T19:44:00.483Z,38.43
2019-03-23T19:46:30.938Z,40.27
2019-03-23T19:49:01.710Z,39.43
2019-03-23T19:51:32.381Z,40.40
2019-03-23T19:54:03.168Z,41.33
2019-03-23T19:56:34.826Z,41.60
2019-03-23T19:59:05.314Z,40.37
2019-03-23T20:01:36.299Z,40.23
2019-03-23T20:04:06.890Z,39.27
2019-03-23T20:06:37.250Z,38.93
2019-03-23T20:09:08.832Z,41.03
2019-03-23T20:11:39.895Z,41.47
2019-03-23T20:14:10.393Z,38.73
2019-03-23T20:16:41.006Z,39.30
2019-03-23T20:19:11.619Z,38.87
2019-03-23T20:21:42.024Z,40.77
2019-03-23T20:24:13.731Z,38.77
2019-03-23T20:26:44.223Z,41.87
2019-03-23T20:29:15.069Z,39.97
2019-03-23T20:31:45.720Z,39.23
2019-03-23T20:34:16.097Z,41.13
2019-03-23T20:36:47.290Z,39.20
2019-03-23T20:39:17.893Z,39.00
2019-03-23T20:41:48.352Z,40.83
2019-03-23T20:44:18.822Z,40.50
2019-03-23T20:46:49.745Z,40.20
2019-03-23T20:49:20.460Z,39.77
2019-03-23T20:51:51.564Z,41.53
2019-03-23T20:54:22.188Z,41.27
2019-03-23T20:56:52.791Z,38.00
2019-03-23T20:59:23.330Z,40.63
2019-03-23T21:01:54.379Z,40.87
2019-03-23T21:04:25.101Z,39.97
2019-03-23T21:06:55.537Z,37.90
2019-03-23T21:09:26.408Z,39.07
2019-03-23T21:11:57.259Z,39.47
2019-03-23T21:14:28.023Z,39.77
2019-03-23T21:16:58.527Z,40.03
2019-03-23T21:19:29.118Z,40.50
2019-03-23T21:21:59.558Z,41.63
2019-03-23T21:24:30.298Z,40.40
2019-03-23T21:27:01.123Z,39.60
2019-03-23T21:29:32.633Z,40.93
2019-03-23T21:32:03.129Z,41.83
2019-03-23T21:34:33.665Z,41.83
2019-03-23T21:37:05.288Z,40.30
2019-03-23T21:39:36.431Z,43.73
2019-03-23T21:42:06.944Z,39.93
2019-03-23T21:44:37.750Z,38.93
2019-03-23T21:47:08.533Z,41.10
2019-03-23T21:49:39.061Z,41.60
2019-03-23T21:52:09.587Z,40.23
2019-03-23T21:54:40.014Z,39.57
2019-03-23T21:57:10.659Z,40.60
2019-03-23T21:59:41.389Z,42.40
2019-03-23T22:02:11.978Z,40.90
2019-03-23T22:04:43.543Z,41.83
2019-03-23T22:07:13.926Z,38.13
2019-03-23T22:09:44.354Z,40.60
2019-03-23T22:12:15.166Z,40.77
2019-03-23T22:14:47.125Z,38.80
2019-03-23T22:17:17.650Z,40.00
2019-03-23T22:19:48.836Z,38.37
2019-03-23T22:22:19.363Z,38.23
2019-03-23T22:24:49.783Z,37.80
2019-03-23T22:27:20.225Z,36.50
2019-03-23T22:29:50.662Z,37.60
2019-03-23T22:32:22.249Z,36.73
2019-03-23T22:34:52.743Z,35.50
2019-03-23T22:37:23.098Z,31.40
2019-03-23T22:39:53.587Z,32.97
2019-03-23T22:42:24.076Z,36.00
2019-03-23T22:44:54.499Z,32.07
2019-03-23T22:47:24.888Z,31.80
2019-03-23T22:49:55.638Z,30.30
2019-03-23T22:52:26.120Z,30.87
2019-03-23T22:54:56.904Z,29.03
2019-03-23T22:57:27.426Z,29.30
2019-03-23T22:59:58.183Z,30.43
2019-03-23T23:02:28.772Z,28.10
2019-03-23T23:04:59.249Z,27.93
2019-03-23T23:07:29.757Z,25.53
2019-03-23T23:10:00.593Z,26.53
2019-03-23T23:12:31.491Z,26.53
2019-03-23T23:15:04.816Z,27.37
2019-03-23T23:17:34.369Z,23.97
2019-03-23T23:20:05.456Z,25.20
2019-03-23T23:22:35.948Z,25.53
2019-03-23T23:25:06.884Z,24.80
2019-03-23T23:27:37.401Z,25.90
2019-03-23T23:30:10.109Z,25.10
2019-03-23T23:32:40.622Z,25.30
2019-03-23T23:35:11.321Z,26.07
2019-03-23T23:37:43.831Z,23.17
2019-03-23T23:40:15.611Z,23.07
2019-03-23T23:42:47.492Z,23.60
2019-03-23T23:45:18.053Z,24.80
2019-03-23T23:47:48.908Z,24.93
2019-03-23T23:50:19.562Z,24.33
2019-03-23T23:52:50.115Z,25.40
2019-03-23T23:55:20.606Z,24.17
2019-03-23T23:57:51.171Z,24.17
